Terminal Aerodrome Forecast
Issued by NWS

Home | Current Version | Previous Version | Text Only | Print | Product List | Glossary On
Versions: 1 2 3 4 5 6 7 8 9 10 11 12 13
000
FTUS42 TJSJ 231100
TAFISX
TAF
TISX 231122Z 2312/2412 01004KT P6SM VCSH FEW020 SCT120
     FM231400 10012KT P6SM SCT022 SCT040 SCT100 PROB30 2321/2323
      -SHRA BKN025
     FM232300 08010KT P6SM VCSH SCT025 SCT050=

USA.gov is the U.S. government's official web portal to all federal, state and local government web resources and services.